sensor_id;sensor_type;location;lat;lon;timestamp;temperature;humidity
5588;DHT22;2816;49.778;9.986;2024-02-14T00:00:06;4.20;99.90
5588;DHT22;2816;49.778;9.986;2024-02-14T00:02:35;4.20;99.90
5588;DHT22;2816;49.778;9.986;2024-02-14T00:05:05;4.20;99.90
5588;DHT22;2816;49.778;9.986;2024-02-14T00:07:32;4.10;99.90
5588;DHT22;2816;49.778;9.986;2024-02-14T00:09:59;4.10;99.90
5588;DHT22;2816;49.778;9.986;2024-02-14T00:12:26;4.10;99.90
5588;DHT22;2816;49.778;9.986;2024-02-14T00:14:53;4.10;99.90
5588;DHT22;2816;49.778;9.986;2024-02-14T00:17:20;4.10;99.90
5588;DHT22;2816;49.778;9.986;2024-02-14T00:19:47;4.10;99.90
5588;DHT22;2816;49.778;9.986;2024-02-14T00:22:16;4.10;99.90
5588;DHT22;2816;49.778;9.986;2024-02-14T00:24:43;4.10;99.90
5588;DHT22;2816;49.778;9.986;2024-02-14T00:27:09;4.20;99.90
5588;DHT22;2816;49.778;9.986;2024-02-14T00:29:36;4.20;99.90
5588;DHT22;2816;49.778;9.986;2024-02-14T00:32:03;4.10;99.90
5588;DHT22;2816;49.778;9.986;2024-02-14T00:34:30;4.10;99.90
5588;DHT22;2816;49.778;9.986;2024-02-14T00:36:57;4.20;99.90
5588;DHT22;2816;49.778;9.986;2024-02-14T00:39:25;4.20;99.90
5588;DHT22;2816;49.778;9.986;2024-02-14T00:41:52;4.20;99.90
5588;DHT22;2816;49.778;9.986;2024-02-14T00:44:20;4.20;99.90
5588;DHT22;2816;49.778;9.986;2024-02-14T00:46:47;4.20;99.90
5588;DHT22;2816;49.778;9.986;2024-02-14T00:49:14;4.20;99.90
5588;DHT22;2816;49.778;9.986;2024-02-14T00:51:41;4.20;99.90
5588;DHT22;2816;49.778;9.986;2024-02-14T00:54:08;4.10;99.90
5588;DHT22;2816;49.778;9.986;2024-02-14T00:56:36;4.20;99.90
5588;DHT22;2816;49.778;9.986;2024-02-14T00:59:03;4.20;99.90
5588;DHT22;2816;49.778;9.986;2024-02-14T01:01:31;4.20;99.90
5588;DHT22;2816;49.778;9.986;2024-02-14T01:03:58;4.10;99.90
5588;DHT22;2816;49.778;9.986;2024-02-14T01:06:26;4.10;99.90
5588;DHT22;2816;49.778;9.986;2024-02-14T01:08:53;4.00;99.90
5588;DHT22;2816;49.778;9.986;2024-02-14T01:11:20;4.00;99.90
5588;DHT22;2816;49.778;9.986;2024-02-14T01:13:48;4.10;99.90
5588;DHT22;2816;49.778;9.986;2024-02-14T01:16:15;4.10;99.90
5588;DHT22;2816;49.778;9.986;2024-02-14T01:18:42;4.10;99.90
5588;DHT22;2816;49.778;9.986;2024-02-14T01:21:09;4.10;99.90
5588;DHT22;2816;49.778;9.986;2024-02-14T01:23:36;4.10;99.90
5588;DHT22;2816;49.778;9.986;2024-02-14T01:26:03;4.00;99.90
5588;DHT22;2816;49.778;9.986;2024-02-14T01:28:30;4.10;99.90
5588;DHT22;2816;49.778;9.986;2024-02-14T01:30:58;4.10;99.90
5588;DHT22;2816;49.778;9.986;2024-02-14T01:33:25;4.10;99.90
5588;DHT22;2816;49.778;9.986;2024-02-14T01:35:53;4.10;99.90
5588;DHT22;2816;49.778;9.986;2024-02-14T01:38:21;4.10;99.90
5588;DHT22;2816;49.778;9.986;2024-02-14T01:40:48;4.10;99.90
5588;DHT22;2816;49.778;9.986;2024-02-14T01:43:15;4.20;99.90
5588;DHT22;2816;49.778;9.986;2024-02-14T01:45:42;4.20;99.90
5588;DHT22;2816;49.778;9.986;2024-02-14T01:48:12;4.20;99.90
5588;DHT22;2816;49.778;9.986;2024-02-14T01:50:44;4.20;99.90
5588;DHT22;2816;49.778;9.986;2024-02-14T01:53:11;4.20;99.90
5588;DHT22;2816;49.778;9.986;2024-02-14T01:55:39;4.20;99.90
5588;DHT22;2816;49.778;9.986;2024-02-14T01:58:06;4.20;99.90
5588;DHT22;2816;49.778;9.986;2024-02-14T02:00:35;4.20;99.90
5588;DHT22;2816;49.778;9.986;2024-02-14T02:03:02;4.20;99.90
5588;DHT22;2816;49.778;9.986;2024-02-14T02:05:31;4.30;99.90
5588;DHT22;2816;49.778;9.986;2024-02-14T02:08:01;4.30;99.90
5588;DHT22;2816;49.778;9.986;2024-02-14T02:10:28;4.30;99.90
5588;DHT22;2816;49.778;9.986;2024-02-14T02:12:58;4.30;99.90
5588;DHT22;2816;49.778;9.986;2024-02-14T02:15:25;4.30;99.90
5588;DHT22;2816;49.778;9.986;2024-02-14T02:17:53;4.30;99.90
5588;DHT22;2816;49.778;9.986;2024-02-14T02:20:20;4.30;99.90
5588;DHT22;2816;49.778;9.986;2024-02-14T02:22:48;4.30;99.90
5588;DHT22;2816;49.778;9.986;2024-02-14T02:25:15;4.30;99.90
5588;DHT22;2816;49.778;9.986;2024-02-14T02:27:43;4.40;99.90
5588;DHT22;2816;49.778;9.986;2024-02-14T02:30:10;4.40;99.90
5588;DHT22;2816;49.778;9.986;2024-02-14T02:32:39;4.40;99.90
5588;DHT22;2816;49.778;9.986;2024-02-14T02:35:07;4.40;99.90
5588;DHT22;2816;49.778;9.986;2024-02-14T02:37:35;4.40;99.90
5588;DHT22;2816;49.778;9.986;2024-02-14T02:40:04;4.40;99.90
5588;DHT22;2816;49.778;9.986;2024-02-14T02:42:32;4.40;99.90
5588;DHT22;2816;49.778;9.986;2024-02-14T02:45:00;4.40;99.90
5588;DHT22;2816;49.778;9.986;2024-02-14T02:47:27;4.40;99.90
5588;DHT22;2816;49.778;9.986;2024-02-14T02:49:55;4.40;99.90
5588;DHT22;2816;49.778;9.986;2024-02-14T02:52:25;4.40;99.90
5588;DHT22;2816;49.778;9.986;2024-02-14T02:54:53;4.40;99.90
5588;DHT22;2816;49.778;9.986;2024-02-14T02:57:21;4.40;99.90
5588;DHT22;2816;49.778;9.986;2024-02-14T02:59:48;4.40;99.90
5588;DHT22;2816;49.778;9.986;2024-02-14T03:02:16;4.40;99.90
5588;DHT22;2816;49.778;9.986;2024-02-14T03:04:44;4.40;99.90
5588;DHT22;2816;49.778;9.986;2024-02-14T03:07:12;4.40;99.90
5588;DHT22;2816;49.778;9.986;2024-02-14T03:09:39;4.40;99.90
5588;DHT22;2816;49.778;9.986;2024-02-14T03:12:06;4.40;99.90
5588;DHT22;2816;49.778;9.986;2024-02-14T03:14:35;4.40;99.90
5588;DHT22;2816;49.778;9.986;2024-02-14T03:17:02;4.40;99.90
5588;DHT22;2816;49.778;9.986;2024-02-14T03:19:31;4.40;99.90
5588;DHT22;2816;49.778;9.986;2024-02-14T03:22:02;4.40;99.90
5588;DHT22;2816;49.778;9.986;2024-02-14T03:24:31;4.40;99.90
5588;DHT22;2816;49.778;9.986;2024-02-14T03:27:01;4.40;99.90
5588;DHT22;2816;49.778;9.986;2024-02-14T03:29:31;4.40;99.90
5588;DHT22;2816;49.778;9.986;2024-02-14T03:32:02;4.40;99.90
5588;DHT22;2816;49.778;9.986;2024-02-14T03:34:30;4.40;99.90
5588;DHT22;2816;49.778;9.986;2024-02-14T03:36:59;4.40;99.90
5588;DHT22;2816;49.778;9.986;2024-02-14T03:39:28;4.40;99.90
5588;DHT22;2816;49.778;9.986;2024-02-14T03:41:54;4.40;99.90
5588;DHT22;2816;49.778;9.986;2024-02-14T03:44:22;4.40;99.90
5588;DHT22;2816;49.778;9.986;2024-02-14T03:46:49;4.40;99.90
5588;DHT22;2816;49.778;9.986;2024-02-14T03:49:17;4.40;99.90
5588;DHT22;2816;49.778;9.986;2024-02-14T03:51:43;4.40;99.90
5588;DHT22;2816;49.778;9.986;2024-02-14T03:54:10;4.40;99.90
5588;DHT22;2816;49.778;9.986;2024-02-14T03:56:37;4.40;99.90
5588;DHT22;2816;49.778;9.986;2024-02-14T03:59:04;4.40;99.90
5588;DHT22;2816;49.778;9.986;2024-02-14T04:01:33;4.40;99.90
5588;DHT22;2816;49.778;9.986;2024-02-14T04:04:01;4.40;99.90
5588;DHT22;2816;49.778;9.986;2024-02-14T04:06:29;4.40;99.90
5588;DHT22;2816;49.778;9.986;2024-02-14T04:08:58;4.40;99.90
5588;DHT22;2816;49.778;9.986;2024-02-14T04:11:25;4.40;99.90
5588;DHT22;2816;49.778;9.986;2024-02-14T04:13:52;4.40;99.90
5588;DHT22;2816;49.778;9.986;2024-02-14T04:16:19;4.40;99.90
5588;DHT22;2816;49.778;9.986;2024-02-14T04:18:48;4.40;99.90
5588;DHT22;2816;49.778;9.986;2024-02-14T04:21:15;4.40;99.90
5588;DHT22;2816;49.778;9.986;2024-02-14T04:23:44;4.40;99.90
5588;DHT22;2816;49.778;9.986;2024-02-14T04:26:19;4.40;99.90
5588;DHT22;2816;49.778;9.986;2024-02-14T04:28:45;4.40;99.90
5588;DHT22;2816;49.778;9.986;2024-02-14T04:31:12;4.40;99.90
5588;DHT22;2816;49.778;9.986;2024-02-14T04:33:39;4.40;99.90
5588;DHT22;2816;49.778;9.986;2024-02-14T04:36:09;4.40;99.90
5588;DHT22;2816;49.778;9.986;2024-02-14T04:38:37;4.50;99.90
5588;DHT22;2816;49.778;9.986;2024-02-14T04:41:07;4.50;99.90
5588;DHT22;2816;49.778;9.986;2024-02-14T04:43:35;4.50;99.90
5588;DHT22;2816;49.778;9.986;2024-02-14T04:46:04;4.50;99.90
5588;DHT22;2816;49.778;9.986;2024-02-14T04:48:33;4.50;99.90
5588;DHT22;2816;49.778;9.986;2024-02-14T04:51:00;4.50;99.90
5588;DHT22;2816;49.778;9.986;2024-02-14T04:53:27;4.50;99.90
5588;DHT22;2816;49.778;9.986;2024-02-14T04:55:54;4.50;99.90
5588;DHT22;2816;49.778;9.986;2024-02-14T04:58:24;4.50;99.90
5588;DHT22;2816;49.778;9.986;2024-02-14T05:00:52;4.60;99.90
5588;DHT22;2816;49.778;9.986;2024-02-14T05:03:20;4.60;99.90
5588;DHT22;2816;49.778;9.986;2024-02-14T05:05:49;4.60;99.90
5588;DHT22;2816;49.778;9.986;2024-02-14T05:08:16;4.60;99.90
5588;DHT22;2816;49.778;9.986;2024-02-14T05:10:43;4.50;99.90
5588;DHT22;2816;49.778;9.986;2024-02-14T05:13:11;4.50;99.90
5588;DHT22;2816;49.778;9.986;2024-02-14T05:15:40;4.60;99.90
5588;DHT22;2816;49.778;9.986;2024-02-14T05:18:07;4.60;99.90
5588;DHT22;2816;49.778;9.986;2024-02-14T05:20:35;4.60;99.90
5588;DHT22;2816;49.778;9.986;2024-02-14T05:23:03;4.60;99.90
5588;DHT22;2816;49.778;9.986;2024-02-14T05:25:30;4.60;99.90
5588;DHT22;2816;49.778;9.986;2024-02-14T05:27:58;4.60;99.90
5588;DHT22;2816;49.778;9.986;2024-02-14T05:30:26;4.60;99.90
5588;DHT22;2816;49.778;9.986;2024-02-14T05:32:55;4.60;99.90
5588;DHT22;2816;49.778;9.986;2024-02-14T05:35:22;4.70;99.90
5588;DHT22;2816;49.778;9.986;2024-02-14T05:37:49;4.70;99.90
5588;DHT22;2816;49.778;9.986;2024-02-14T05:40:17;4.70;99.90
5588;DHT22;2816;49.778;9.986;2024-02-14T05:42:44;4.70;99.90
5588;DHT22;2816;49.778;9.986;2024-02-14T05:45:11;4.70;99.90
5588;DHT22;2816;49.778;9.986;2024-02-14T05:47:38;4.70;99.90
5588;DHT22;2816;49.778;9.986;2024-02-14T05:50:07;4.70;99.90
5588;DHT22;2816;49.778;9.986;2024-02-14T05:52:37;4.70;99.90
5588;DHT22;2816;49.778;9.986;2024-02-14T05:55:05;4.70;99.90
5588;DHT22;2816;49.778;9.986;2024-02-14T05:57:34;4.70;99.90
5588;DHT22;2816;49.778;9.986;2024-02-14T06:00:02;4.80;99.90
5588;DHT22;2816;49.778;9.986;2024-02-14T06:02:30;4.80;99.90
5588;DHT22;2816;49.778;9.986;2024-02-14T06:04:56;4.80;99.90
5588;DHT22;2816;49.778;9.986;2024-02-14T06:07:25;4.80;99.90
5588;DHT22;2816;49.778;9.986;2024-02-14T06:09:52;4.80;99.90
5588;DHT22;2816;49.778;9.986;2024-02-14T06:12:18;4.80;99.90
5588;DHT22;2816;49.778;9.986;2024-02-14T06:14:48;4.90;99.90
5588;DHT22;2816;49.778;9.986;2024-02-14T06:17:15;4.90;99.90
5588;DHT22;2816;49.778;9.986;2024-02-14T06:19:42;4.90;99.90
5588;DHT22;2816;49.778;9.986;2024-02-14T06:22:09;4.80;99.90
5588;DHT22;2816;49.778;9.986;2024-02-14T06:24:38;4.80;99.90
5588;DHT22;2816;49.778;9.986;2024-02-14T06:27:05;4.90;99.90
5588;DHT22;2816;49.778;9.986;2024-02-14T06:29:32;4.90;99.90
5588;DHT22;2816;49.778;9.986;2024-02-14T06:31:59;4.80;99.90
5588;DHT22;2816;49.778;9.986;2024-02-14T06:34:25;4.80;99.90
5588;DHT22;2816;49.778;9.986;2024-02-14T06:36:53;4.80;99.90
5588;DHT22;2816;49.778;9.986;2024-02-14T06:39:20;4.90;99.90
5588;DHT22;2816;49.778;9.986;2024-02-14T06:41:48;4.80;99.90
5588;DHT22;2816;49.778;9.986;2024-02-14T06:44:15;4.80;99.90
5588;DHT22;2816;49.778;9.986;2024-02-14T06:46:43;4.90;99.90
5588;DHT22;2816;49.778;9.986;2024-02-14T06:49:10;4.80;99.90
5588;DHT22;2816;49.778;9.986;2024-02-14T06:51:37;4.90;99.90
5588;DHT22;2816;49.778;9.986;2024-02-14T06:54:04;4.90;99.90
5588;DHT22;2816;49.778;9.986;2024-02-14T06:56:31;5.00;99.90
5588;DHT22;2816;49.778;9.986;2024-02-14T06:59:00;5.00;99.90
5588;DHT22;2816;49.778;9.986;2024-02-14T07:01:28;5.00;99.90
5588;DHT22;2816;49.778;9.986;2024-02-14T07:03:55;5.10;99.90
5588;DHT22;2816;49.778;9.986;2024-02-14T07:06:22;5.00;99.90
5588;DHT22;2816;49.778;9.986;2024-02-14T07:08:49;5.00;99.90
5588;DHT22;2816;49.778;9.986;2024-02-14T07:11:16;5.10;99.90
5588;DHT22;2816;49.778;9.986;2024-02-14T07:13:44;5.10;99.90
5588;DHT22;2816;49.778;9.986;2024-02-14T07:16:12;5.20;99.90
5588;DHT22;2816;49.778;9.986;2024-02-14T07:18:39;5.10;99.90
5588;DHT22;2816;49.778;9.986;2024-02-14T07:21:06;5.10;99.90
5588;DHT22;2816;49.778;9.986;2024-02-14T07:23:33;5.20;99.90
5588;DHT22;2816;49.778;9.986;2024-02-14T07:26:00;5.20;99.90
5588;DHT22;2816;49.778;9.986;2024-02-14T07:28:27;5.20;99.90
5588;DHT22;2816;49.778;9.986;2024-02-14T07:30:54;5.20;99.90
5588;DHT22;2816;49.778;9.986;2024-02-14T07:33:23;5.20;99.90
5588;DHT22;2816;49.778;9.986;2024-02-14T07:35:50;5.20;99.90
5588;DHT22;2816;49.778;9.986;2024-02-14T07:38:17;5.20;99.90
5588;DHT22;2816;49.778;9.986;2024-02-14T07:40:44;5.30;99.90
5588;DHT22;2816;49.778;9.986;2024-02-14T07:43:11;5.30;99.90
5588;DHT22;2816;49.778;9.986;2024-02-14T07:45:38;5.40;99.90
5588;DHT22;2816;49.778;9.986;2024-02-14T07:48:05;5.40;99.90
5588;DHT22;2816;49.778;9.986;2024-02-14T07:50:34;5.40;99.90
5588;DHT22;2816;49.778;9.986;2024-02-14T07:53:02;5.40;99.90
5588;DHT22;2816;49.778;9.986;2024-02-14T07:55:29;5.40;99.90
5588;DHT22;2816;49.778;9.986;2024-02-14T07:57:56;5.40;99.90
5588;DHT22;2816;49.778;9.986;2024-02-14T08:00:25;5.50;99.90
5588;DHT22;2816;49.778;9.986;2024-02-14T08:02:52;5.60;99.90
5588;DHT22;2816;49.778;9.986;2024-02-14T08:05:19;5.60;99.90
5588;DHT22;2816;49.778;9.986;2024-02-14T08:07:47;5.60;99.90
5588;DHT22;2816;49.778;9.986;2024-02-14T08:10:14;5.60;99.90
5588;DHT22;2816;49.778;9.986;2024-02-14T08:12:41;5.60;99.90
5588;DHT22;2816;49.778;9.986;2024-02-14T08:15:09;5.70;99.90
5588;DHT22;2816;49.778;9.986;2024-02-14T08:17:36;5.80;99.90
5588;DHT22;2816;49.778;9.986;2024-02-14T08:20:04;5.80;99.90
5588;DHT22;2816;49.778;9.986;2024-02-14T08:22:31;5.90;99.90
5588;DHT22;2816;49.778;9.986;2024-02-14T08:24:59;6.00;99.90
5588;DHT22;2816;49.778;9.986;2024-02-14T08:27:26;6.00;99.90
5588;DHT22;2816;49.778;9.986;2024-02-14T08:29:54;6.00;99.90
5588;DHT22;2816;49.778;9.986;2024-02-14T08:32:21;6.00;99.90
5588;DHT22;2816;49.778;9.986;2024-02-14T08:34:48;6.10;99.90
5588;DHT22;2816;49.778;9.986;2024-02-14T08:37:16;6.20;99.90
5588;DHT22;2816;49.778;9.986;2024-02-14T08:39:43;6.20;99.90
5588;DHT22;2816;49.778;9.986;2024-02-14T08:42:12;6.20;99.90
5588;DHT22;2816;49.778;9.986;2024-02-14T08:44:39;6.30;99.90
5588;DHT22;2816;49.778;9.986;2024-02-14T08:47:06;6.40;99.90
5588;DHT22;2816;49.778;9.986;2024-02-14T08:49:34;6.50;99.90
5588;DHT22;2816;49.778;9.986;2024-02-14T08:52:01;6.50;99.90
5588;DHT22;2816;49.778;9.986;2024-02-14T08:54:28;6.60;99.90
5588;DHT22;2816;49.778;9.986;2024-02-14T08:56:55;6.60;99.90
5588;DHT22;2816;49.778;9.986;2024-02-14T08:59:26;6.60;99.90
5588;DHT22;2816;49.778;9.986;2024-02-14T09:01:53;6.70;99.90
5588;DHT22;2816;49.778;9.986;2024-02-14T09:04:20;6.70;99.90
5588;DHT22;2816;49.778;9.986;2024-02-14T09:06:46;6.60;99.90
5588;DHT22;2816;49.778;9.986;2024-02-14T09:09:13;6.70;99.90
5588;DHT22;2816;49.778;9.986;2024-02-14T09:11:41;6.80;99.90
5588;DHT22;2816;49.778;9.986;2024-02-14T09:14:08;6.90;99.90
5588;DHT22;2816;49.778;9.986;2024-02-14T09:16:37;6.90;99.90
5588;DHT22;2816;49.778;9.986;2024-02-14T09:19:05;7.00;99.90
5588;DHT22;2816;49.778;9.986;2024-02-14T09:21:33;7.10;99.90
5588;DHT22;2816;49.778;9.986;2024-02-14T09:24:01;7.20;99.90
5588;DHT22;2816;49.778;9.986;2024-02-14T09:26:29;7.20;99.90
5588;DHT22;2816;49.778;9.986;2024-02-14T09:28:56;7.20;99.90
5588;DHT22;2816;49.778;9.986;2024-02-14T09:31:23;7.40;99.90
5588;DHT22;2816;49.778;9.986;2024-02-14T09:33:51;7.40;99.90
5588;DHT22;2816;49.778;9.986;2024-02-14T09:36:22;7.40;99.90
5588;DHT22;2816;49.778;9.986;2024-02-14T09:38:49;7.40;99.90
5588;DHT22;2816;49.778;9.986;2024-02-14T09:41:21;7.50;99.90
5588;DHT22;2816;49.778;9.986;2024-02-14T09:43:49;7.50;99.90
5588;DHT22;2816;49.778;9.986;2024-02-14T09:46:16;7.40;99.90
5588;DHT22;2816;49.778;9.986;2024-02-14T09:48:43;7.30;99.90
5588;DHT22;2816;49.778;9.986;2024-02-14T09:51:12;7.30;99.90
5588;DHT22;2816;49.778;9.986;2024-02-14T09:53:39;7.40;99.90
5588;DHT22;2816;49.778;9.986;2024-02-14T09:56:09;7.50;99.90
5588;DHT22;2816;49.778;9.986;2024-02-14T09:58:37;7.50;99.90
5588;DHT22;2816;49.778;9.986;2024-02-14T10:01:04;7.50;99.90
5588;DHT22;2816;49.778;9.986;2024-02-14T10:03:33;7.50;99.90
5588;DHT22;2816;49.778;9.986;2024-02-14T10:06:00;7.70;99.90
5588;DHT22;2816;49.778;9.986;2024-02-14T10:08:29;7.60;99.90
5588;DHT22;2816;49.778;9.986;2024-02-14T10:10:57;7.70;99.90
5588;DHT22;2816;49.778;9.986;2024-02-14T10:13:27;7.70;99.90
5588;DHT22;2816;49.778;9.986;2024-02-14T10:15:56;7.70;99.90
5588;DHT22;2816;49.778;9.986;2024-02-14T10:18:23;7.60;99.90
5588;DHT22;2816;49.778;9.986;2024-02-14T10:20:54;7.70;99.90
5588;DHT22;2816;49.778;9.986;2024-02-14T10:23:21;7.70;99.90
5588;DHT22;2816;49.778;9.986;2024-02-14T10:25:50;7.70;99.90
5588;DHT22;2816;49.778;9.986;2024-02-14T10:28:18;7.90;99.90
5588;DHT22;2816;49.778;9.986;2024-02-14T10:30:46;7.80;99.90
5588;DHT22;2816;49.778;9.986;2024-02-14T10:33:15;7.80;99.90
5588;DHT22;2816;49.778;9.986;2024-02-14T10:35:42;7.90;99.90
5588;DHT22;2816;49.778;9.986;2024-02-14T10:38:09;8.00;99.90
5588;DHT22;2816;49.778;9.986;2024-02-14T10:40:38;8.00;99.90
5588;DHT22;2816;49.778;9.986;2024-02-14T10:43:06;8.10;99.90
5588;DHT22;2816;49.778;9.986;2024-02-14T10:45:34;8.20;99.90
5588;DHT22;2816;49.778;9.986;2024-02-14T10:48:04;8.30;99.90
5588;DHT22;2816;49.778;9.986;2024-02-14T10:50:33;8.20;99.90
5588;DHT22;2816;49.778;9.986;2024-02-14T10:53:04;8.30;99.90
5588;DHT22;2816;49.778;9.986;2024-02-14T10:55:32;8.40;99.90
5588;DHT22;2816;49.778;9.986;2024-02-14T10:58:01;8.40;99.90
5588;DHT22;2816;49.778;9.986;2024-02-14T11:00:29;8.40;99.90
5588;DHT22;2816;49.778;9.986;2024-02-14T11:02:58;8.40;99.90
5588;DHT22;2816;49.778;9.986;2024-02-14T11:05:27;8.40;99.90
5588;DHT22;2816;49.778;9.986;2024-02-14T11:07:54;8.40;99.90
5588;DHT22;2816;49.778;9.986;2024-02-14T11:10:22;8.40;99.90
5588;DHT22;2816;49.778;9.986;2024-02-14T11:12:50;8.40;99.90
5588;DHT22;2816;49.778;9.986;2024-02-14T11:15:19;8.60;99.90
5588;DHT22;2816;49.778;9.986;2024-02-14T11:17:48;8.50;99.90
5588;DHT22;2816;49.778;9.986;2024-02-14T11:20:18;8.60;99.90
5588;DHT22;2816;49.778;9.986;2024-02-14T11:22:55;8.50;99.90
5588;DHT22;2816;49.778;9.986;2024-02-14T11:25:27;8.50;99.90
5588;DHT22;2816;49.778;9.986;2024-02-14T11:27:55;8.60;99.90
5588;DHT22;2816;49.778;9.986;2024-02-14T11:30:31;8.70;99.90
5588;DHT22;2816;49.778;9.986;2024-02-14T11:33:25;8.70;99.90
5588;DHT22;2816;49.778;9.986;2024-02-14T11:35:55;8.80;99.90
5588;DHT22;2816;49.778;9.986;2024-02-14T11:38:24;8.90;99.90
5588;DHT22;2816;49.778;9.986;2024-02-14T11:40:53;8.90;99.90
5588;DHT22;2816;49.778;9.986;2024-02-14T11:43:22;8.90;99.90
5588;DHT22;2816;49.778;9.986;2024-02-14T11:45:50;8.80;99.90
5588;DHT22;2816;49.778;9.986;2024-02-14T11:48:18;8.90;99.90
5588;DHT22;2816;49.778;9.986;2024-02-14T11:50:47;8.90;99.90
5588;DHT22;2816;49.778;9.986;2024-02-14T11:53:15;9.00;99.90
5588;DHT22;2816;49.778;9.986;2024-02-14T11:55:44;8.90;99.90
5588;DHT22;2816;49.778;9.986;2024-02-14T11:58:13;8.90;99.90
5588;DHT22;2816;49.778;9.986;2024-02-14T12:00:42;8.80;99.90
5588;DHT22;2816;49.778;9.986;2024-02-14T12:03:12;8.80;99.90
5588;DHT22;2816;49.778;9.986;2024-02-14T12:05:40;8.80;99.90
5588;DHT22;2816;49.778;9.986;2024-02-14T12:08:10;8.80;99.90
5588;DHT22;2816;49.778;9.986;2024-02-14T12:10:37;8.80;99.90
5588;DHT22;2816;49.778;9.986;2024-02-14T12:13:08;8.80;99.90
5588;DHT22;2816;49.778;9.986;2024-02-14T12:15:41;8.80;99.90
5588;DHT22;2816;49.778;9.986;2024-02-14T12:18:09;8.80;99.90
5588;DHT22;2816;49.778;9.986;2024-02-14T12:20:38;8.80;99.90
5588;DHT22;2816;49.778;9.986;2024-02-14T12:23:05;8.80;99.90
5588;DHT22;2816;49.778;9.986;2024-02-14T12:25:34;8.80;99.90
5588;DHT22;2816;49.778;9.986;2024-02-14T12:28:01;8.90;99.90
5588;DHT22;2816;49.778;9.986;2024-02-14T12:30:42;8.90;99.90
5588;DHT22;2816;49.778;9.986;2024-02-14T12:33:11;8.90;99.90
5588;DHT22;2816;49.778;9.986;2024-02-14T12:35:41;8.90;99.90
5588;DHT22;2816;49.778;9.986;2024-02-14T12:38:09;8.90;99.90
5588;DHT22;2816;49.778;9.986;2024-02-14T12:40:38;8.80;99.90
5588;DHT22;2816;49.778;9.986;2024-02-14T12:43:07;8.90;99.90
5588;DHT22;2816;49.778;9.986;2024-02-14T12:45:34;8.90;99.90
5588;DHT22;2816;49.778;9.986;2024-02-14T12:48:01;8.80;99.90
5588;DHT22;2816;49.778;9.986;2024-02-14T12:50:28;8.90;99.90
5588;DHT22;2816;49.778;9.986;2024-02-14T12:53:00;8.90;99.90
5588;DHT22;2816;49.778;9.986;2024-02-14T12:55:27;8.90;99.90
5588;DHT22;2816;49.778;9.986;2024-02-14T12:57:56;8.90;99.90
5588;DHT22;2816;49.778;9.986;2024-02-14T13:00:23;8.90;99.90
5588;DHT22;2816;49.778;9.986;2024-02-14T13:02:50;8.90;99.90
5588;DHT22;2816;49.778;9.986;2024-02-14T13:05:19;8.90;99.90
5588;DHT22;2816;49.778;9.986;2024-02-14T13:07:46;8.90;99.90
5588;DHT22;2816;49.778;9.986;2024-02-14T13:10:13;8.90;99.90
5588;DHT22;2816;49.778;9.986;2024-02-14T13:12:40;8.80;99.90
5588;DHT22;2816;49.778;9.986;2024-02-14T13:15:10;8.90;99.90
5588;DHT22;2816;49.778;9.986;2024-02-14T13:17:37;8.90;99.90
5588;DHT22;2816;49.778;9.986;2024-02-14T13:20:05;8.90;99.90
5588;DHT22;2816;49.778;9.986;2024-02-14T13:22:33;8.80;99.90
5588;DHT22;2816;49.778;9.986;2024-02-14T13:25:01;8.90;99.90
5588;DHT22;2816;49.778;9.986;2024-02-14T13:27:30;8.90;99.90
5588;DHT22;2816;49.778;9.986;2024-02-14T13:29:58;8.80;99.90
5588;DHT22;2816;49.778;9.986;2024-02-14T13:32:27;8.80;99.90
5588;DHT22;2816;49.778;9.986;2024-02-14T13:34:54;8.80;99.90
5588;DHT22;2816;49.778;9.986;2024-02-14T13:37:20;8.80;99.90
5588;DHT22;2816;49.778;9.986;2024-02-14T13:39:48;8.80;99.90
5588;DHT22;2816;49.778;9.986;2024-02-14T13:42:14;8.80;99.90
5588;DHT22;2816;49.778;9.986;2024-02-14T13:44:41;8.80;99.90
5588;DHT22;2816;49.778;9.986;2024-02-14T13:47:08;8.80;99.90
5588;DHT22;2816;49.778;9.986;2024-02-14T13:49:37;8.80;99.90
5588;DHT22;2816;49.778;9.986;2024-02-14T13:52:04;8.90;99.90
5588;DHT22;2816;49.778;9.986;2024-02-14T13:54:31;9.00;99.90
5588;DHT22;2816;49.778;9.986;2024-02-14T13:56:58;9.10;99.90
5588;DHT22;2816;49.778;9.986;2024-02-14T13:59:25;9.00;99.90
5588;DHT22;2816;49.778;9.986;2024-02-14T14:01:51;9.10;99.90
5588;DHT22;2816;49.778;9.986;2024-02-14T14:04:18;9.10;99.90
5588;DHT22;2816;49.778;9.986;2024-02-14T14:06:47;9.20;99.90
5588;DHT22;2816;49.778;9.986;2024-02-14T14:09:14;9.20;99.90
5588;DHT22;2816;49.778;9.986;2024-02-14T14:11:41;9.10;99.90
5588;DHT22;2816;49.778;9.986;2024-02-14T14:14:08;9.10;99.90
5588;DHT22;2816;49.778;9.986;2024-02-14T14:16:41;9.00;99.90
5588;DHT22;2816;49.778;9.986;2024-02-14T14:19:09;8.90;99.90
5588;DHT22;2816;49.778;9.986;2024-02-14T14:21:36;9.00;99.90
5588;DHT22;2816;49.778;9.986;2024-02-14T14:24:09;9.00;99.90
5588;DHT22;2816;49.778;9.986;2024-02-14T14:26:36;8.90;99.90
5588;DHT22;2816;49.778;9.986;2024-02-14T14:29:03;8.90;99.90
5588;DHT22;2816;49.778;9.986;2024-02-14T14:31:31;8.90;99.90
5588;DHT22;2816;49.778;9.986;2024-02-14T14:33:59;9.00;99.90
5588;DHT22;2816;49.778;9.986;2024-02-14T14:36:26;8.90;99.90
5588;DHT22;2816;49.778;9.986;2024-02-14T14:38:53;8.90;99.90
5588;DHT22;2816;49.778;9.986;2024-02-14T14:41:22;9.00;99.90
5588;DHT22;2816;49.778;9.986;2024-02-14T14:43:49;8.90;99.90
5588;DHT22;2816;49.778;9.986;2024-02-14T14:46:15;9.00;99.90
5588;DHT22;2816;49.778;9.986;2024-02-14T14:48:42;8.90;99.90
5588;DHT22;2816;49.778;9.986;2024-02-14T14:51:09;8.90;99.90
5588;DHT22;2816;49.778;9.986;2024-02-14T14:53:36;8.90;99.90
5588;DHT22;2816;49.778;9.986;2024-02-14T14:56:03;8.90;99.90
5588;DHT22;2816;49.778;9.986;2024-02-14T14:58:32;8.90;99.90
5588;DHT22;2816;49.778;9.986;2024-02-14T15:01:00;8.90;99.90
5588;DHT22;2816;49.778;9.986;2024-02-14T15:03:29;8.90;99.90
5588;DHT22;2816;49.778;9.986;2024-02-14T15:05:59;8.80;99.90
5588;DHT22;2816;49.778;9.986;2024-02-14T15:08:26;8.80;99.90
5588;DHT22;2816;49.778;9.986;2024-02-14T15:10:54;8.80;99.90
5588;DHT22;2816;49.778;9.986;2024-02-14T15:13:24;8.80;99.90
5588;DHT22;2816;49.778;9.986;2024-02-14T15:15:52;8.80;99.90
5588;DHT22;2816;49.778;9.986;2024-02-14T15:18:19;8.80;99.90
5588;DHT22;2816;49.778;9.986;2024-02-14T15:20:47;8.80;99.90
5588;DHT22;2816;49.778;9.986;2024-02-14T15:23:14;8.80;99.90
5588;DHT22;2816;49.778;9.986;2024-02-14T15:25:41;8.80;99.90
5588;DHT22;2816;49.778;9.986;2024-02-14T15:28:09;8.70;99.90
5588;DHT22;2816;49.778;9.986;2024-02-14T15:30:40;8.70;99.90
5588;DHT22;2816;49.778;9.986;2024-02-14T15:33:26;8.80;99.90
5588;DHT22;2816;49.778;9.986;2024-02-14T15:35:54;8.80;99.90
5588;DHT22;2816;49.778;9.986;2024-02-14T15:38:23;8.80;99.90
5588;DHT22;2816;49.778;9.986;2024-02-14T15:40:51;8.80;99.90
5588;DHT22;2816;49.778;9.986;2024-02-14T15:43:20;8.80;99.90
5588;DHT22;2816;49.778;9.986;2024-02-14T15:45:49;8.70;99.90
5588;DHT22;2816;49.778;9.986;2024-02-14T15:48:19;8.70;99.90
5588;DHT22;2816;49.778;9.986;2024-02-14T15:50:47;8.70;99.90
5588;DHT22;2816;49.778;9.986;2024-02-14T15:53:15;8.70;99.90
5588;DHT22;2816;49.778;9.986;2024-02-14T15:55:42;8.70;99.90
5588;DHT22;2816;49.778;9.986;2024-02-14T15:58:09;8.80;99.90
5588;DHT22;2816;49.778;9.986;2024-02-14T16:00:36;8.80;99.90
5588;DHT22;2816;49.778;9.986;2024-02-14T16:03:03;8.80;99.90
5588;DHT22;2816;49.778;9.986;2024-02-14T16:05:31;8.80;99.90
5588;DHT22;2816;49.778;9.986;2024-02-14T16:07:59;8.80;99.90
5588;DHT22;2816;49.778;9.986;2024-02-14T16:10:27;8.90;99.90
5588;DHT22;2816;49.778;9.986;2024-02-14T16:12:54;8.90;99.90
5588;DHT22;2816;49.778;9.986;2024-02-14T16:15:22;8.90;99.90
5588;DHT22;2816;49.778;9.986;2024-02-14T16:17:49;9.00;99.90
5588;DHT22;2816;49.778;9.986;2024-02-14T16:20:17;8.90;99.90